sensor_id;sensor_type;location;lat;lon;timestamp;P1;durP1;ratioP1;P2;durP2;ratioP2
72941;SDS011;69665;55.822;37.330;2024-01-30T00:01:46;10.10;;;4.20;;
72941;SDS011;69665;55.822;37.330;2024-01-30T00:04:11;8.38;;;3.95;;
72941;SDS011;69665;55.822;37.330;2024-01-30T00:06:37;11.07;;;4.28;;
72941;SDS011;69665;55.822;37.330;2024-01-30T00:09:02;9.05;;;4.07;;
72941;SDS011;69665;55.822;37.330;2024-01-30T00:11:28;10.60;;;4.18;;
72941;SDS011;69665;55.822;37.330;2024-01-30T00:13:54;9.75;;;4.07;;
72941;SDS011;69665;55.822;37.330;2024-01-30T00:16:22;10.95;;;4.20;;
72941;SDS011;69665;55.822;37.330;2024-01-30T00:18:52;9.65;;;3.88;;
72941;SDS011;69665;55.822;37.330;2024-01-30T00:21:19;9.45;;;4.45;;
72941;SDS011;69665;55.822;37.330;2024-01-30T00:23:45;8.60;;;3.70;;
72941;SDS011;69665;55.822;37.330;2024-01-30T00:26:11;8.73;;;3.88;;
72941;SDS011;69665;55.822;37.330;2024-01-30T00:28:37;9.95;;;3.80;;
72941;SDS011;69665;55.822;37.330;2024-01-30T00:31:04;11.60;;;3.90;;
72941;SDS011;69665;55.822;37.330;2024-01-30T00:33:30;8.93;;;3.53;;
72941;SDS011;69665;55.822;37.330;2024-01-30T00:35:55;10.30;;;3.95;;
72941;SDS011;69665;55.822;37.330;2024-01-30T00:38:21;8.98;;;4.30;;
72941;SDS011;69665;55.822;37.330;2024-01-30T00:40:48;9.20;;;3.72;;
72941;SDS011;69665;55.822;37.330;2024-01-30T00:43:13;9.82;;;3.85;;
72941;SDS011;69665;55.822;37.330;2024-01-30T00:45:39;11.23;;;4.47;;
72941;SDS011;69665;55.822;37.330;2024-01-30T00:48:05;8.48;;;3.72;;
72941;SDS011;69665;55.822;37.330;2024-01-30T00:50:31;9.80;;;4.70;;
72941;SDS011;69665;55.822;37.330;2024-01-30T00:52:56;8.15;;;3.25;;
72941;SDS011;69665;55.822;37.330;2024-01-30T00:55:22;9.82;;;3.95;;
72941;SDS011;69665;55.822;37.330;2024-01-30T00:57:48;10.68;;;4.40;;
72941;SDS011;69665;55.822;37.330;2024-01-30T01:00:13;8.45;;;3.97;;
72941;SDS011;69665;55.822;37.330;2024-01-30T01:02:42;9.95;;;4.18;;
72941;SDS011;69665;55.822;37.330;2024-01-30T01:05:08;10.02;;;3.65;;
72941;SDS011;69665;55.822;37.330;2024-01-30T01:07:34;10.30;;;3.88;;
72941;SDS011;69665;55.822;37.330;2024-01-30T01:10:00;11.00;;;4.05;;
72941;SDS011;69665;55.822;37.330;2024-01-30T01:12:26;10.13;;;4.65;;
72941;SDS011;69665;55.822;37.330;2024-01-30T01:14:51;9.65;;;4.13;;
72941;SDS011;69665;55.822;37.330;2024-01-30T01:17:17;9.43;;;3.78;;
72941;SDS011;69665;55.822;37.330;2024-01-30T01:19:43;8.93;;;3.70;;
72941;SDS011;69665;55.822;37.330;2024-01-30T01:22:09;8.02;;;3.65;;
72941;SDS011;69665;55.822;37.330;2024-01-30T01:24:35;11.27;;;4.60;;
72941;SDS011;69665;55.822;37.330;2024-01-30T01:27:01;9.23;;;4.43;;
72941;SDS011;69665;55.822;37.330;2024-01-30T01:29:27;9.93;;;4.43;;
72941;SDS011;69665;55.822;37.330;2024-01-30T01:31:55;8.63;;;3.72;;
72941;SDS011;69665;55.822;37.330;2024-01-30T01:34:21;11.57;;;3.80;;
72941;SDS011;69665;55.822;37.330;2024-01-30T01:36:47;9.32;;;3.53;;
72941;SDS011;69665;55.822;37.330;2024-01-30T01:39:13;9.35;;;4.22;;
72941;SDS011;69665;55.822;37.330;2024-01-30T01:41:39;10.77;;;4.43;;
72941;SDS011;69665;55.822;37.330;2024-01-30T01:44:04;11.15;;;4.43;;
72941;SDS011;69665;55.822;37.330;2024-01-30T01:46:32;9.32;;;4.30;;
72941;SDS011;69665;55.822;37.330;2024-01-30T01:48:58;9.07;;;3.45;;
72941;SDS011;69665;55.822;37.330;2024-01-30T01:51:26;9.13;;;3.53;;
72941;SDS011;69665;55.822;37.330;2024-01-30T01:53:55;10.40;;;4.30;;
72941;SDS011;69665;55.822;37.330;2024-01-30T01:56:21;8.35;;;3.75;;
72941;SDS011;69665;55.822;37.330;2024-01-30T01:58:48;10.05;;;4.32;;
72941;SDS011;69665;55.822;37.330;2024-01-30T02:01:15;11.05;;;4.40;;
72941;SDS011;69665;55.822;37.330;2024-01-30T02:03:44;9.93;;;4.55;;
72941;SDS011;69665;55.822;37.330;2024-01-30T02:06:10;12.25;;;4.63;;
72941;SDS011;69665;55.822;37.330;2024-01-30T02:08:37;10.82;;;4.32;;
72941;SDS011;69665;55.822;37.330;2024-01-30T02:11:03;8.98;;;4.35;;
72941;SDS011;69665;55.822;37.330;2024-01-30T02:13:29;10.68;;;4.18;;
72941;SDS011;69665;55.822;37.330;2024-01-30T02:15:55;10.68;;;4.80;;
72941;SDS011;69665;55.822;37.330;2024-01-30T02:18:21;10.98;;;4.40;;
72941;SDS011;69665;55.822;37.330;2024-01-30T02:21:09;8.05;;;4.18;;
72941;SDS011;69665;55.822;37.330;2024-01-30T02:23:35;9.73;;;3.78;;
72941;SDS011;69665;55.822;37.330;2024-01-30T02:26:00;11.68;;;4.53;;
72941;SDS011;69665;55.822;37.330;2024-01-30T02:28:26;9.82;;;4.30;;
72941;SDS011;69665;55.822;37.330;2024-01-30T02:30:52;8.52;;;3.95;;
72941;SDS011;69665;55.822;37.330;2024-01-30T02:33:18;9.32;;;4.20;;
72941;SDS011;69665;55.822;37.330;2024-01-30T02:35:44;9.63;;;3.83;;
72941;SDS011;69665;55.822;37.330;2024-01-30T02:38:10;9.57;;;4.40;;
72941;SDS011;69665;55.822;37.330;2024-01-30T02:40:35;11.30;;;4.85;;
72941;SDS011;69665;55.822;37.330;2024-01-30T02:43:01;10.63;;;3.80;;
72941;SDS011;69665;55.822;37.330;2024-01-30T02:45:28;11.45;;;4.20;;
72941;SDS011;69665;55.822;37.330;2024-01-30T02:47:54;9.90;;;4.00;;
72941;SDS011;69665;55.822;37.330;2024-01-30T02:50:19;11.55;;;4.40;;
72941;SDS011;69665;55.822;37.330;2024-01-30T02:52:45;8.38;;;4.15;;
72941;SDS011;69665;55.822;37.330;2024-01-30T02:55:11;11.70;;;4.57;;
72941;SDS011;69665;55.822;37.330;2024-01-30T02:57:37;9.88;;;3.60;;
72941;SDS011;69665;55.822;37.330;2024-01-30T03:00:03;9.55;;;4.00;;
72941;SDS011;69665;55.822;37.330;2024-01-30T03:02:32;10.30;;;4.45;;
72941;SDS011;69665;55.822;37.330;2024-01-30T03:04:58;9.43;;;3.85;;
72941;SDS011;69665;55.822;37.330;2024-01-30T03:07:24;11.73;;;3.92;;
72941;SDS011;69665;55.822;37.330;2024-01-30T03:09:50;10.65;;;4.20;;
72941;SDS011;69665;55.822;37.330;2024-01-30T03:12:16;9.05;;;3.95;;
72941;SDS011;69665;55.822;37.330;2024-01-30T03:14:41;9.60;;;4.35;;
72941;SDS011;69665;55.822;37.330;2024-01-30T03:17:07;9.63;;;4.32;;
72941;SDS011;69665;55.822;37.330;2024-01-30T03:19:35;9.02;;;3.88;;
72941;SDS011;69665;55.822;37.330;2024-01-30T03:22:01;10.32;;;4.15;;
72941;SDS011;69665;55.822;37.330;2024-01-30T03:24:27;11.25;;;4.13;;
72941;SDS011;69665;55.822;37.330;2024-01-30T03:26:53;9.07;;;4.00;;
72941;SDS011;69665;55.822;37.330;2024-01-30T03:29:18;6.90;;;3.67;;
72941;SDS011;69665;55.822;37.330;2024-01-30T03:31:44;10.25;;;4.60;;
72941;SDS011;69665;55.822;37.330;2024-01-30T03:34:11;9.57;;;4.07;;
72941;SDS011;69665;55.822;37.330;2024-01-30T03:36:36;9.95;;;4.18;;
72941;SDS011;69665;55.822;37.330;2024-01-30T03:39:02;11.48;;;3.88;;
72941;SDS011;69665;55.822;37.330;2024-01-30T03:41:28;9.40;;;4.15;;
72941;SDS011;69665;55.822;37.330;2024-01-30T03:43:53;11.48;;;4.38;;
72941;SDS011;69665;55.822;37.330;2024-01-30T03:46:19;12.35;;;4.13;;
72941;SDS011;69665;55.822;37.330;2024-01-30T03:48:45;10.98;;;4.38;;
72941;SDS011;69665;55.822;37.330;2024-01-30T03:51:11;9.90;;;4.13;;
72941;SDS011;69665;55.822;37.330;2024-01-30T03:53:41;10.68;;;4.80;;
72941;SDS011;69665;55.822;37.330;2024-01-30T03:56:08;8.75;;;3.65;;
72941;SDS011;69665;55.822;37.330;2024-01-30T03:58:34;9.50;;;3.80;;
72941;SDS011;69665;55.822;37.330;2024-01-30T04:01:00;9.80;;;3.70;;
72941;SDS011;69665;55.822;37.330;2024-01-30T04:03:25;11.43;;;4.88;;
72941;SDS011;69665;55.822;37.330;2024-01-30T04:05:51;8.90;;;3.97;;
72941;SDS011;69665;55.822;37.330;2024-01-30T04:08:18;11.57;;;4.15;;
72941;SDS011;69665;55.822;37.330;2024-01-30T04:10:43;10.65;;;4.20;;
72941;SDS011;69665;55.822;37.330;2024-01-30T04:13:10;10.35;;;4.55;;
72941;SDS011;69665;55.822;37.330;2024-01-30T04:15:36;8.68;;;4.28;;
72941;SDS011;69665;55.822;37.330;2024-01-30T04:18:01;11.20;;;4.53;;
72941;SDS011;69665;55.822;37.330;2024-01-30T04:20:27;10.27;;;4.20;;
72941;SDS011;69665;55.822;37.330;2024-01-30T04:22:53;10.25;;;4.07;;
72941;SDS011;69665;55.822;37.330;2024-01-30T04:25:18;10.85;;;4.35;;
72941;SDS011;69665;55.822;37.330;2024-01-30T04:27:44;9.63;;;4.32;;
72941;SDS011;69665;55.822;37.330;2024-01-30T04:30:10;10.45;;;4.15;;
72941;SDS011;69665;55.822;37.330;2024-01-30T04:32:36;11.90;;;4.85;;
72941;SDS011;69665;55.822;37.330;2024-01-30T04:35:02;11.15;;;4.35;;
72941;SDS011;69665;55.822;37.330;2024-01-30T04:37:30;13.43;;;5.32;;
72941;SDS011;69665;55.822;37.330;2024-01-30T04:39:56;10.68;;;4.82;;
72941;SDS011;69665;55.822;37.330;2024-01-30T04:42:23;11.40;;;4.97;;
72941;SDS011;69665;55.822;37.330;2024-01-30T04:44:49;10.85;;;4.93;;
72941;SDS011;69665;55.822;37.330;2024-01-30T04:47:15;11.13;;;5.20;;
72941;SDS011;69665;55.822;37.330;2024-01-30T04:49:40;9.65;;;4.53;;
72941;SDS011;69665;55.822;37.330;2024-01-30T04:52:07;12.30;;;6.00;;
72941;SDS011;69665;55.822;37.330;2024-01-30T04:54:33;12.50;;;5.10;;
72941;SDS011;69665;55.822;37.330;2024-01-30T04:56:59;12.25;;;4.65;;
72941;SDS011;69665;55.822;37.330;2024-01-30T04:59:25;9.63;;;4.95;;
72941;SDS011;69665;55.822;37.330;2024-01-30T05:01:51;12.52;;;4.53;;
72941;SDS011;69665;55.822;37.330;2024-01-30T05:04:17;10.35;;;4.85;;
72941;SDS011;69665;55.822;37.330;2024-01-30T05:06:42;12.88;;;5.30;;
72941;SDS011;69665;55.822;37.330;2024-01-30T05:09:08;11.23;;;4.72;;
72941;SDS011;69665;55.822;37.330;2024-01-30T05:11:38;13.25;;;4.82;;
72941;SDS011;69665;55.822;37.330;2024-01-30T05:14:04;10.23;;;4.95;;
72941;SDS011;69665;55.822;37.330;2024-01-30T05:16:31;11.02;;;5.05;;
72941;SDS011;69665;55.822;37.330;2024-01-30T05:18:56;12.65;;;4.97;;
72941;SDS011;69665;55.822;37.330;2024-01-30T05:21:22;13.52;;;5.43;;
72941;SDS011;69665;55.822;37.330;2024-01-30T05:23:48;12.30;;;4.75;;
72941;SDS011;69665;55.822;37.330;2024-01-30T05:26:14;12.15;;;5.28;;
72941;SDS011;69665;55.822;37.330;2024-01-30T05:28:39;11.63;;;5.40;;
72941;SDS011;69665;55.822;37.330;2024-01-30T05:31:05;9.75;;;5.10;;
72941;SDS011;69665;55.822;37.330;2024-01-30T05:33:30;12.40;;;5.35;;
72941;SDS011;69665;55.822;37.330;2024-01-30T05:35:56;12.77;;;5.88;;
72941;SDS011;69665;55.822;37.330;2024-01-30T05:41:12;14.15;;;5.03;;
72941;SDS011;69665;55.822;37.330;2024-01-30T05:43:38;13.05;;;5.20;;
72941;SDS011;69665;55.822;37.330;2024-01-30T05:46:04;11.25;;;4.88;;
72941;SDS011;69665;55.822;37.330;2024-01-30T05:48:29;15.50;;;6.10;;
72941;SDS011;69665;55.822;37.330;2024-01-30T05:50:55;9.90;;;4.72;;
72941;SDS011;69665;55.822;37.330;2024-01-30T05:53:21;13.88;;;5.07;;
72941;SDS011;69665;55.822;37.330;2024-01-30T05:55:47;13.43;;;6.50;;
72941;SDS011;69665;55.822;37.330;2024-01-30T05:58:13;12.38;;;5.93;;
72941;SDS011;69665;55.822;37.330;2024-01-30T06:00:38;12.65;;;5.55;;
72941;SDS011;69665;55.822;37.330;2024-01-30T06:03:04;14.20;;;4.97;;
72941;SDS011;69665;55.822;37.330;2024-01-30T06:05:29;11.52;;;5.28;;
72941;SDS011;69665;55.822;37.330;2024-01-30T06:07:55;15.30;;;5.40;;
72941;SDS011;69665;55.822;37.330;2024-01-30T06:10:21;10.75;;;4.68;;
72941;SDS011;69665;55.822;37.330;2024-01-30T06:12:46;13.80;;;5.60;;
72941;SDS011;69665;55.822;37.330;2024-01-30T06:15:13;14.60;;;5.72;;
72941;SDS011;69665;55.822;37.330;2024-01-30T06:17:39;15.60;;;4.82;;
72941;SDS011;69665;55.822;37.330;2024-01-30T06:20:04;11.60;;;5.22;;
72941;SDS011;69665;55.822;37.330;2024-01-30T06:22:31;10.90;;;5.40;;
72941;SDS011;69665;55.822;37.330;2024-01-30T06:24:56;13.13;;;5.80;;
72941;SDS011;69665;55.822;37.330;2024-01-30T06:27:22;10.95;;;6.10;;
72941;SDS011;69665;55.822;37.330;2024-01-30T06:29:48;12.23;;;5.40;;
72941;SDS011;69665;55.822;37.330;2024-01-30T06:32:13;14.70;;;6.63;;
72941;SDS011;69665;55.822;37.330;2024-01-30T06:34:40;14.27;;;5.15;;
72941;SDS011;69665;55.822;37.330;2024-01-30T06:37:06;13.70;;;5.80;;
72941;SDS011;69665;55.822;37.330;2024-01-30T06:39:32;13.32;;;6.03;;
72941;SDS011;69665;55.822;37.330;2024-01-30T06:42:00;14.45;;;6.30;;
72941;SDS011;69665;55.822;37.330;2024-01-30T06:44:26;14.70;;;6.03;;
72941;SDS011;69665;55.822;37.330;2024-01-30T06:46:51;9.98;;;5.20;;
72941;SDS011;69665;55.822;37.330;2024-01-30T06:49:17;12.30;;;5.93;;
72941;SDS011;69665;55.822;37.330;2024-01-30T06:51:43;16.25;;;7.10;;
72941;SDS011;69665;55.822;37.330;2024-01-30T06:54:08;15.45;;;5.85;;
72941;SDS011;69665;55.822;37.330;2024-01-30T06:56:34;14.63;;;5.07;;
72941;SDS011;69665;55.822;37.330;2024-01-30T06:59:01;12.85;;;6.03;;
72941;SDS011;69665;55.822;37.330;2024-01-30T07:01:29;13.50;;;6.18;;
72941;SDS011;69665;55.822;37.330;2024-01-30T07:03:55;14.55;;;5.80;;
72941;SDS011;69665;55.822;37.330;2024-01-30T07:06:21;14.32;;;6.25;;
72941;SDS011;69665;55.822;37.330;2024-01-30T07:08:48;17.70;;;7.10;;
72941;SDS011;69665;55.822;37.330;2024-01-30T07:11:21;14.65;;;6.40;;
72941;SDS011;69665;55.822;37.330;2024-01-30T07:13:47;13.85;;;6.22;;
72941;SDS011;69665;55.822;37.330;2024-01-30T07:16:14;16.77;;;5.70;;
72941;SDS011;69665;55.822;37.330;2024-01-30T07:18:40;13.52;;;6.40;;
72941;SDS011;69665;55.822;37.330;2024-01-30T07:21:05;14.02;;;5.53;;
72941;SDS011;69665;55.822;37.330;2024-01-30T07:23:31;14.32;;;6.38;;
72941;SDS011;69665;55.822;37.330;2024-01-30T07:25:57;14.55;;;5.57;;
72941;SDS011;69665;55.822;37.330;2024-01-30T07:28:23;15.52;;;6.53;;
72941;SDS011;69665;55.822;37.330;2024-01-30T07:30:49;13.15;;;5.90;;
72941;SDS011;69665;55.822;37.330;2024-01-30T07:33:15;13.88;;;6.28;;
72941;SDS011;69665;55.822;37.330;2024-01-30T07:35:41;14.57;;;6.25;;
72941;SDS011;69665;55.822;37.330;2024-01-30T07:38:06;15.27;;;6.65;;
72941;SDS011;69665;55.822;37.330;2024-01-30T07:40:32;14.75;;;5.78;;
72941;SDS011;69665;55.822;37.330;2024-01-30T07:42:58;15.07;;;6.40;;
72941;SDS011;69665;55.822;37.330;2024-01-30T07:45:24;15.63;;;6.22;;
72941;SDS011;69665;55.822;37.330;2024-01-30T07:47:50;16.60;;;6.57;;
72941;SDS011;69665;55.822;37.330;2024-01-30T07:50:17;16.15;;;7.03;;
72941;SDS011;69665;55.822;37.330;2024-01-30T07:52:43;15.05;;;5.95;;
72941;SDS011;69665;55.822;37.330;2024-01-30T07:55:09;16.13;;;6.25;;
72941;SDS011;69665;55.822;37.330;2024-01-30T07:57:35;16.38;;;7.13;;
72941;SDS011;69665;55.822;37.330;2024-01-30T08:00:01;14.95;;;6.80;;
72941;SDS011;69665;55.822;37.330;2024-01-30T08:02:36;16.35;;;6.32;;
72941;SDS011;69665;55.822;37.330;2024-01-30T08:05:01;16.80;;;6.25;;
72941;SDS011;69665;55.822;37.330;2024-01-30T08:07:28;13.35;;;5.63;;
72941;SDS011;69665;55.822;37.330;2024-01-30T08:09:55;12.73;;;6.30;;
72941;SDS011;69665;55.822;37.330;2024-01-30T08:12:21;18.23;;;6.43;;
72941;SDS011;69665;55.822;37.330;2024-01-30T08:14:47;16.73;;;6.72;;
72941;SDS011;69665;55.822;37.330;2024-01-30T08:17:12;16.83;;;6.03;;
72941;SDS011;69665;55.822;37.330;2024-01-30T08:19:38;16.35;;;6.95;;
72941;SDS011;69665;55.822;37.330;2024-01-30T08:22:04;14.35;;;6.07;;
72941;SDS011;69665;55.822;37.330;2024-01-30T08:24:29;15.02;;;7.00;;
72941;SDS011;69665;55.822;37.330;2024-01-30T08:26:55;14.80;;;5.50;;
72941;SDS011;69665;55.822;37.330;2024-01-30T08:29:20;13.80;;;5.88;;
72941;SDS011;69665;55.822;37.330;2024-01-30T08:31:46;14.68;;;7.28;;
72941;SDS011;69665;55.822;37.330;2024-01-30T08:34:12;15.55;;;6.18;;
72941;SDS011;69665;55.822;37.330;2024-01-30T08:36:37;15.15;;;7.55;;
72941;SDS011;69665;55.822;37.330;2024-01-30T08:39:03;17.60;;;6.97;;
72941;SDS011;69665;55.822;37.330;2024-01-30T08:41:28;14.15;;;6.32;;
72941;SDS011;69665;55.822;37.330;2024-01-30T08:43:54;19.13;;;6.60;;
72941;SDS011;69665;55.822;37.330;2024-01-30T08:46:20;16.17;;;6.22;;
72941;SDS011;69665;55.822;37.330;2024-01-30T08:48:46;15.73;;;7.00;;
72941;SDS011;69665;55.822;37.330;2024-01-30T08:51:13;13.20;;;6.18;;
72941;SDS011;69665;55.822;37.330;2024-01-30T08:53:40;14.85;;;5.90;;
72941;SDS011;69665;55.822;37.330;2024-01-30T08:56:06;15.40;;;6.32;;
72941;SDS011;69665;55.822;37.330;2024-01-30T08:58:32;14.80;;;6.50;;
72941;SDS011;69665;55.822;37.330;2024-01-30T09:01:01;14.48;;;6.18;;
72941;SDS011;69665;55.822;37.330;2024-01-30T09:03:26;16.85;;;6.50;;
72941;SDS011;69665;55.822;37.330;2024-01-30T09:05:52;14.90;;;6.40;;
72941;SDS011;69665;55.822;37.330;2024-01-30T09:08:18;15.82;;;7.47;;
72941;SDS011;69665;55.822;37.330;2024-01-30T09:10:44;16.45;;;6.18;;
72941;SDS011;69665;55.822;37.330;2024-01-30T09:13:09;14.65;;;6.68;;
72941;SDS011;69665;55.822;37.330;2024-01-30T09:15:35;13.88;;;6.32;;
72941;SDS011;69665;55.822;37.330;2024-01-30T09:18:01;16.02;;;6.80;;
72941;SDS011;69665;55.822;37.330;2024-01-30T09:20:26;15.27;;;6.40;;
72941;SDS011;69665;55.822;37.330;2024-01-30T09:22:52;13.75;;;5.82;;
72941;SDS011;69665;55.822;37.330;2024-01-30T09:25:17;14.55;;;5.82;;
72941;SDS011;69665;55.822;37.330;2024-01-30T09:27:44;12.52;;;5.63;;
72941;SDS011;69665;55.822;37.330;2024-01-30T09:30:09;12.60;;;5.55;;
72941;SDS011;69665;55.822;37.330;2024-01-30T09:32:35;13.45;;;6.30;;
72941;SDS011;69665;55.822;37.330;2024-01-30T09:35:01;12.20;;;6.10;;
72941;SDS011;69665;55.822;37.330;2024-01-30T09:37:28;14.05;;;6.05;;
72941;SDS011;69665;55.822;37.330;2024-01-30T09:39:54;17.08;;;6.07;;
72941;SDS011;69665;55.822;37.330;2024-01-30T09:42:35;14.23;;;6.50;;
72941;SDS011;69665;55.822;37.330;2024-01-30T09:45:02;13.38;;;5.50;;
72941;SDS011;69665;55.822;37.330;2024-01-30T09:47:32;13.13;;;5.90;;
72941;SDS011;69665;55.822;37.330;2024-01-30T09:50:08;13.43;;;6.38;;
72941;SDS011;69665;55.822;37.330;2024-01-30T09:52:34;14.38;;;6.18;;
72941;SDS011;69665;55.822;37.330;2024-01-30T09:55:00;13.63;;;5.65;;
72941;SDS011;69665;55.822;37.330;2024-01-30T09:57:26;14.70;;;6.45;;
72941;SDS011;69665;55.822;37.330;2024-01-30T09:59:52;12.73;;;6.20;;
72941;SDS011;69665;55.822;37.330;2024-01-30T10:02:19;14.77;;;6.18;;
72941;SDS011;69665;55.822;37.330;2024-01-30T10:04:48;12.90;;;6.25;;
72941;SDS011;69665;55.822;37.330;2024-01-30T10:07:15;14.70;;;6.50;;
72941;SDS011;69665;55.822;37.330;2024-01-30T10:09:41;15.23;;;6.45;;
72941;SDS011;69665;55.822;37.330;2024-01-30T10:12:08;14.32;;;6.20;;
72941;SDS011;69665;55.822;37.330;2024-01-30T10:14:37;14.77;;;5.80;;
72941;SDS011;69665;55.822;37.330;2024-01-30T10:17:09;15.00;;;6.07;;
72941;SDS011;69665;55.822;37.330;2024-01-30T10:19:37;13.32;;;6.43;;
72941;SDS011;69665;55.822;37.330;2024-01-30T10:22:03;13.20;;;5.80;;
72941;SDS011;69665;55.822;37.330;2024-01-30T10:24:30;15.18;;;5.90;;
72941;SDS011;69665;55.822;37.330;2024-01-30T10:26:56;15.80;;;6.90;;
72941;SDS011;69665;55.822;37.330;2024-01-30T10:29:22;14.55;;;6.57;;
72941;SDS011;69665;55.822;37.330;2024-01-30T10:31:58;14.65;;;6.22;;
72941;SDS011;69665;55.822;37.330;2024-01-30T10:34:24;12.32;;;5.88;;
72941;SDS011;69665;55.822;37.330;2024-01-30T10:36:50;15.25;;;6.43;;
72941;SDS011;69665;55.822;37.330;2024-01-30T10:39:18;15.85;;;7.03;;
72941;SDS011;69665;55.822;37.330;2024-01-30T10:41:47;15.52;;;7.57;;
72941;SDS011;69665;55.822;37.330;2024-01-30T10:44:17;17.10;;;6.47;;
72941;SDS011;69665;55.822;37.330;2024-01-30T10:46:45;17.83;;;6.13;;
72941;SDS011;69665;55.822;37.330;2024-01-30T10:49:17;12.75;;;5.60;;
72941;SDS011;69665;55.822;37.330;2024-01-30T10:51:43;11.00;;;5.28;;
72941;SDS011;69665;55.822;37.330;2024-01-30T10:54:10;15.82;;;7.18;;
72941;SDS011;69665;55.822;37.330;2024-01-30T10:56:37;16.35;;;6.22;;
72941;SDS011;69665;55.822;37.330;2024-01-30T10:59:05;16.27;;;5.90;;
72941;SDS011;69665;55.822;37.330;2024-01-30T11:01:31;15.13;;;6.22;;
72941;SDS011;69665;55.822;37.330;2024-01-30T11:03:57;13.75;;;6.30;;
72941;SDS011;69665;55.822;37.330;2024-01-30T11:06:23;12.45;;;5.80;;
72941;SDS011;69665;55.822;37.330;2024-01-30T11:09:23;12.65;;;5.13;;
72941;SDS011;69665;55.822;37.330;2024-01-30T11:11:55;14.57;;;6.28;;
72941;SDS011;69665;55.822;37.330;2024-01-30T11:16:57;12.27;;;5.95;;
72941;SDS011;69665;55.822;37.330;2024-01-30T11:19:24;15.45;;;6.32;;
72941;SDS011;69665;55.822;37.330;2024-01-30T11:21:52;14.23;;;6.35;;
72941;SDS011;69665;55.822;37.330;2024-01-30T11:24:22;14.90;;;6.00;;
72941;SDS011;69665;55.822;37.330;2024-01-30T11:26:55;15.80;;;7.18;;
72941;SDS011;69665;55.822;37.330;2024-01-30T11:29:29;14.23;;;6.22;;
72941;SDS011;69665;55.822;37.330;2024-01-30T11:31:55;15.32;;;6.50;;
72941;SDS011;69665;55.822;37.330;2024-01-30T11:34:21;14.15;;;6.15;;
72941;SDS011;69665;55.822;37.330;2024-01-30T11:36:50;14.85;;;6.85;;
72941;SDS011;69665;55.822;37.330;2024-01-30T11:39:20;14.90;;;6.15;;
72941;SDS011;69665;55.822;37.330;2024-01-30T11:41:47;13.75;;;6.43;;
72941;SDS011;69665;55.822;37.330;2024-01-30T11:44:16;17.60;;;7.13;;
72941;SDS011;69665;55.822;37.330;2024-01-30T11:46:41;14.70;;;5.72;;
72941;SDS011;69665;55.822;37.330;2024-01-30T11:49:07;15.73;;;6.05;;
72941;SDS011;69665;55.822;37.330;2024-01-30T11:51:33;13.75;;;6.30;;
72941;SDS011;69665;55.822;37.330;2024-01-30T11:53:58;15.07;;;6.78;;
72941;SDS011;69665;55.822;37.330;2024-01-30T11:56:24;14.57;;;5.53;;
72941;SDS011;69665;55.822;37.330;2024-01-30T11:58:52;15.63;;;6.32;;
72941;SDS011;69665;55.822;37.330;2024-01-30T12:01:17;13.50;;;5.57;;
72941;SDS011;69665;55.822;37.330;2024-01-30T12:03:49;14.07;;;5.88;;
72941;SDS011;69665;55.822;37.330;2024-01-30T12:06:15;16.45;;;5.68;;
72941;SDS011;69665;55.822;37.330;2024-01-30T12:08:41;14.95;;;5.90;;
72941;SDS011;69665;55.822;37.330;2024-01-30T12:11:07;17.48;;;6.57;;
72941;SDS011;69665;55.822;37.330;2024-01-30T12:13:33;13.20;;;5.60;;
72941;SDS011;69665;55.822;37.330;2024-01-30T12:16:00;16.13;;;5.85;;
72941;SDS011;69665;55.822;37.330;2024-01-30T12:18:26;14.80;;;6.65;;
72941;SDS011;69665;55.822;37.330;2024-01-30T12:21:01;17.50;;;6.78;;
72941;SDS011;69665;55.822;37.330;2024-01-30T12:23:27;19.40;;;6.55;;
72941;SDS011;69665;55.822;37.330;2024-01-30T12:25:53;14.60;;;6.47;;
72941;SDS011;69665;55.822;37.330;2024-01-30T12:28:20;18.63;;;6.47;;
72941;SDS011;69665;55.822;37.330;2024-01-30T12:30:46;18.02;;;6.07;;
72941;SDS011;69665;55.822;37.330;2024-01-30T12:33:18;12.32;;;6.13;;
72941;SDS011;69665;55.822;37.330;2024-01-30T12:35:47;14.77;;;6.40;;
72941;SDS011;69665;55.822;37.330;2024-01-30T12:38:14;13.00;;;6.57;;
72941;SDS011;69665;55.822;37.330;2024-01-30T12:40:40;16.52;;;6.10;;
72941;SDS011;69665;55.822;37.330;2024-01-30T12:43:06;17.92;;;6.50;;
72941;SDS011;69665;55.822;37.330;2024-01-30T12:45:32;16.50;;;7.03;;
72941;SDS011;69665;55.822;37.330;2024-01-30T12:47:57;13.85;;;7.47;;
72941;SDS011;69665;55.822;37.330;2024-01-30T12:50:23;14.32;;;6.00;;
72941;SDS011;69665;55.822;37.330;2024-01-30T12:52:49;17.33;;;7.55;;
72941;SDS011;69665;55.822;37.330;2024-01-30T12:55:14;19.88;;;6.38;;
72941;SDS011;69665;55.822;37.330;2024-01-30T12:57:40;15.70;;;7.07;;
72941;SDS011;69665;55.822;37.330;2024-01-30T13:00:07;13.98;;;6.13;;
72941;SDS011;69665;55.822;37.330;2024-01-30T13:02:34;15.48;;;6.80;;
72941;SDS011;69665;55.822;37.330;2024-01-30T13:05:02;17.50;;;6.55;;
72941;SDS011;69665;55.822;37.330;2024-01-30T13:07:30;15.52;;;6.95;;
72941;SDS011;69665;55.822;37.330;2024-01-30T13:09:56;15.07;;;6.05;;
72941;SDS011;69665;55.822;37.330;2024-01-30T13:12:30;15.13;;;7.45;;
72941;SDS011;69665;55.822;37.330;2024-01-30T13:14:57;17.67;;;6.38;;
72941;SDS011;69665;55.822;37.330;2024-01-30T13:17:24;16.05;;;6.57;;
72941;SDS011;69665;55.822;37.330;2024-01-30T13:19:49;20.48;;;7.45;;
72941;SDS011;69665;55.822;37.330;2024-01-30T13:22:15;17.17;;;6.93;;
72941;SDS011;69665;55.822;37.330;2024-01-30T13:24:40;16.30;;;7.47;;
72941;SDS011;69665;55.822;37.330;2024-01-30T13:27:06;21.40;;;8.25;;
72941;SDS011;69665;55.822;37.330;2024-01-30T13:29:32;22.33;;;8.32;;
72941;SDS011;69665;55.822;37.330;2024-01-30T13:31:58;13.98;;;7.03;;
72941;SDS011;69665;55.822;37.330;2024-01-30T13:34:24;18.60;;;7.80;;
72941;SDS011;69665;55.822;37.330;2024-01-30T13:36:50;15.30;;;8.43;;
72941;SDS011;69665;55.822;37.330;2024-01-30T13:39:16;17.20;;;7.20;;
72941;SDS011;69665;55.822;37.330;2024-01-30T13:41:41;19.25;;;8.43;;
72941;SDS011;69665;55.822;37.330;2024-01-30T13:44:07;14.98;;;7.55;;
72941;SDS011;69665;55.822;37.330;2024-01-30T13:46:34;15.77;;;6.95;;
72941;SDS011;69665;55.822;37.330;2024-01-30T13:49:01;16.60;;;7.47;;
72941;SDS011;69665;55.822;37.330;2024-01-30T13:51:27;16.50;;;6.65;;
72941;SDS011;69665;55.822;37.330;2024-01-30T13:53:53;16.83;;;6.60;;
72941;SDS011;69665;55.822;37.330;2024-01-30T13:56:19;16.77;;;7.53;;
72941;SDS011;69665;55.822;37.330;2024-01-30T13:58:47;14.63;;;6.85;;
72941;SDS011;69665;55.822;37.330;2024-01-30T14:01:14;18.90;;;7.18;;
72941;SDS011;69665;55.822;37.330;2024-01-30T14:03:39;16.33;;;7.50;;
72941;SDS011;69665;55.822;37.330;2024-01-30T14:06:05;18.00;;;8.25;;
72941;SDS011;69665;55.822;37.330;2024-01-30T14:08:31;17.85;;;8.25;;
72941;SDS011;69665;55.822;37.330;2024-01-30T14:10:57;19.38;;;7.47;;
72941;SDS011;69665;55.822;37.330;2024-01-30T14:13:23;16.95;;;7.50;;
72941;SDS011;69665;55.822;37.330;2024-01-30T14:15:53;19.05;;;8.93;;
72941;SDS011;69665;55.822;37.330;2024-01-30T14:18:19;20.58;;;7.80;;
72941;SDS011;69665;55.822;37.330;2024-01-30T14:20:45;19.55;;;7.20;;
72941;SDS011;69665;55.822;37.330;2024-01-30T14:23:11;17.23;;;6.85;;
72941;SDS011;69665;55.822;37.330;2024-01-30T14:25:37;16.60;;;7.40;;